<?xml version='1.0' encoding='UTF-8'?><gpx version="1.1" creator="JPX - https://github.com/jenetics/jpx" xmlns="http://www.topografix.com/GPX/1/1"><trk><trkseg><trkpt lat="42.070052" lon="12.1321869"><ele>263.0</ele><time>2026-04-24T08:39:57.656Z</time></trkpt><trkpt lat="42.0700283" lon="12.13198"><ele>263.0</ele><time>2026-04-24T08:39:59.058Z</time></trkpt><trkpt lat="42.0754883" lon="12.1352617"><ele>266.75</ele><time>2026-04-24T08:42:40.94Z</time></trkpt><trkpt lat="42.075515" lon="12.1353617"><ele>270.5</ele><time>2026-04-24T08:42:44.418Z</time></trkpt><trkpt lat="42.0756433" lon="12.1355617"><ele>274.25</ele><time>2026-04-24T08:42:55.502Z</time></trkpt><trkpt lat="42.0757617" lon="12.1356583"><ele>278.0</ele><time>2026-04-24T08:42:56.921Z</time></trkpt><trkpt lat="42.0758333" lon="12.1357167"><ele>278.6666666666667</ele><time>2026-04-24T08:42:59.424Z</time></trkpt><trkpt lat="42.075895" lon="12.1357533"><ele>279.3333333333333</ele><time>2026-04-24T08:43:01.423Z</time></trkpt><trkpt lat="42.075965" lon="12.1357867"><ele>280.0</ele><time>2026-04-24T08:43:03.415Z</time></trkpt><trkpt lat="42.07653" lon="12.1365583"><ele>271.0</ele><time>2026-04-24T08:43:50.299Z</time></trkpt><trkpt lat="42.0844504" lon="12.1478203"><ele>271.0</ele><time>2026-04-24T08:48:04.603Z</time></trkpt><trkpt lat="42.08499" lon="12.1472633"><ele>271.0</ele><time>2026-04-24T08:48:41.694Z</time></trkpt><trkpt lat="42.0849217" lon="12.14733"><ele>271.0</ele><time>2026-04-24T08:48:42.922Z</time></trkpt><trkpt lat="42.0848867" lon="12.1474333"><ele>271.0</ele><time>2026-04-24T08:48:45.423Z</time></trkpt><trkpt lat="42.0848783" lon="12.1475183"><ele>271.0</ele><time>2026-04-24T08:48:47.419Z</time></trkpt><trkpt lat="42.084865" lon="12.1476433"><ele>271.0</ele><time>2026-04-24T08:48:50.423Z</time></trkpt><trkpt lat="42.084396" lon="12.1481084"><ele>271.0</ele><time>2026-04-24T08:49:06.752Z</time></trkpt></trkseg><trkseg><trkpt lat="42.084602" lon="12.1516394"><ele>263.0</ele><time>2026-04-24T08:51:43.806Z</time></trkpt><trkpt lat="42.083125" lon="12.1560467"><ele>263.0</ele><time>2026-04-24T08:52:44.81Z</time></trkpt><trkpt lat="42.0830533" lon="12.1560717"><ele>263.0</ele><time>2026-04-24T08:52:45.919Z</time></trkpt><trkpt lat="42.0829867" lon="12.1561367"><ele>263.0</ele><time>2026-04-24T08:52:47.418Z</time></trkpt><trkpt lat="42.0829533" lon="12.15622"><ele>263.0</ele><time>2026-04-24T08:52:48.418Z</time></trkpt><trkpt lat="42.082925" lon="12.156305"><ele>263.0</ele><time>2026-04-24T08:52:49.421Z</time></trkpt><trkpt lat="42.0828967" lon="12.1563917"><ele>263.0</ele><time>2026-04-24T08:52:50.418Z</time></trkpt><trkpt lat="42.08287" lon="12.15648"><ele>263.0</ele><time>2026-04-24T08:52:51.425Z</time></trkpt><trkpt lat="42.0828417" lon="12.1565683"><ele>263.1666666666667</ele><time>2026-04-24T08:52:52.422Z</time></trkpt><trkpt lat="42.0828133" lon="12.1566583"><ele>263.33333333333337</ele><time>2026-04-24T08:52:53.421Z</time></trkpt><trkpt lat="42.082785" lon="12.1567517"><ele>263.5</ele><time>2026-04-24T08:52:54.423Z</time></trkpt><trkpt lat="42.08276" lon="12.1568483"><ele>263.6666666666667</ele><time>2026-04-24T08:52:55.423Z</time></trkpt><trkpt lat="42.082735" lon="12.1569483"><ele>263.8333333333333</ele><time>2026-04-24T08:52:56.423Z</time></trkpt><trkpt lat="42.08271" lon="12.15705"><ele>264.0</ele><time>2026-04-24T08:52:57.422Z</time></trkpt><trkpt lat="42.082685" lon="12.15715"><ele>264.0</ele><time>2026-04-24T08:52:58.422Z</time></trkpt><trkpt lat="42.0826567" lon="12.1572533"><ele>264.0</ele><time>2026-04-24T08:52:59.42Z</time></trkpt><trkpt lat="42.0826333" lon="12.157355"><ele>264.0</ele><time>2026-04-24T08:53:00.421Z</time></trkpt><trkpt lat="42.0826067" lon="12.157455"><ele>264.0</ele><time>2026-04-24T08:53:01.421Z</time></trkpt><trkpt lat="42.081765" lon="12.160975"><ele>266.6666666666667</ele><time>2026-04-24T08:54:06.961Z</time></trkpt><trkpt lat="42.08167" lon="12.1614083"><ele>269.33333333333337</ele><time>2026-04-24T08:54:19.417Z</time></trkpt><trkpt lat="42.0816533" lon="12.1615017"><ele>272.0</ele><time>2026-04-24T08:54:22.419Z</time></trkpt><trkpt lat="42.0816217" lon="12.1616033"><ele>273.0</ele><time>2026-04-24T08:54:25.419Z</time></trkpt><trkpt lat="42.0815017" lon="12.162325"><ele>272.25</ele><time>2026-04-24T08:54:46.509Z</time></trkpt><trkpt lat="42.081415" lon="12.1626033"><ele>271.5</ele><time>2026-04-24T08:54:48.422Z</time></trkpt><trkpt lat="42.081375" lon="12.162765"><ele>270.75</ele><time>2026-04-24T08:54:50.422Z</time></trkpt><trkpt lat="42.081355" lon="12.1628483"><ele>270.0</ele><time>2026-04-24T08:54:51.423Z</time></trkpt><trkpt lat="42.0813333" lon="12.162935"><ele>270.0</ele><time>2026-04-24T08:54:52.421Z</time></trkpt><trkpt lat="42.08131" lon="12.1630367"><ele>270.0</ele><time>2026-04-24T08:54:53.423Z</time></trkpt><trkpt lat="42.081275" lon="12.1642083"><ele>267.0</ele><time>2026-04-24T08:55:05.919Z</time></trkpt><trkpt lat="42.0804183" lon="12.1675567"><ele>267.0</ele><time>2026-04-24T08:55:46.48Z</time></trkpt><trkpt lat="42.0803817" lon="12.1676817"><ele>267.0</ele><time>2026-04-24T08:55:47.925Z</time></trkpt><trkpt lat="42.0803283" lon="12.1678"><ele>267.0</ele><time>2026-04-24T08:55:49.422Z</time></trkpt><trkpt lat="42.079346" lon="12.1697606"><ele>274.0</ele><time>2026-04-24T08:56:56.404Z</time></trkpt><trkpt lat="42.0814717" lon="12.1698683"><ele>274.0</ele><time>2026-04-24T08:57:04.021Z</time></trkpt><trkpt lat="42.08154" lon="12.1698783"><ele>274.0</ele><time>2026-04-24T08:57:05.921Z</time></trkpt><trkpt lat="42.0827434" lon="12.169294"><ele>290.0</ele><time>2026-04-24T08:57:54.06Z</time></trkpt><trkpt lat="42.08424" lon="12.1739717"><ele>289.25</ele><time>2026-04-24T09:00:10.146Z</time></trkpt><trkpt lat="42.0842167" lon="12.1742167"><ele>288.5</ele><time>2026-04-24T09:00:12.418Z</time></trkpt><trkpt lat="42.08421" lon="12.174345"><ele>287.75</ele><time>2026-04-24T09:00:13.422Z</time></trkpt><trkpt lat="42.0842133" lon="12.1744667"><ele>287.0</ele><time>2026-04-24T09:00:14.42Z</time></trkpt><trkpt lat="42.0842167" lon="12.1745967"><ele>287.0</ele><time>2026-04-24T09:00:15.421Z</time></trkpt><trkpt lat="42.0842217" lon="12.174725"><ele>287.0</ele><time>2026-04-24T09:00:16.42Z</time></trkpt><trkpt lat="42.08422" lon="12.1748583"><ele>287.0</ele><time>2026-04-24T09:00:17.422Z</time></trkpt><trkpt lat="42.08422" lon="12.1749817"><ele>287.0</ele><time>2026-04-24T09:00:18.424Z</time></trkpt><trkpt lat="42.08422" lon="12.175105"><ele>287.0</ele><time>2026-04-24T09:00:19.421Z</time></trkpt><trkpt lat="42.0842183" lon="12.175225"><ele>286.5</ele><time>2026-04-24T09:00:20.415Z</time></trkpt><trkpt lat="42.08422" lon="12.1753433"><ele>286.0</ele><time>2026-04-24T09:00:21.421Z</time></trkpt><trkpt lat="42.0842167" lon="12.1754633"><ele>285.5</ele><time>2026-04-24T09:00:22.425Z</time></trkpt><trkpt lat="42.0842133" lon="12.17557"><ele>285.0</ele><time>2026-04-24T09:00:23.419Z</time></trkpt><trkpt lat="42.0842083" lon="12.1756883"><ele>284.5</ele><time>2026-04-24T09:00:24.421Z</time></trkpt><trkpt lat="42.0842067" lon="12.1758067"><ele>284.0</ele><time>2026-04-24T09:00:25.42Z</time></trkpt><trkpt lat="42.0842017" lon="12.175935"><ele>283.6666666666667</ele><time>2026-04-24T09:00:26.42Z</time></trkpt><trkpt lat="42.0842" lon="12.1760633"><ele>283.33333333333337</ele><time>2026-04-24T09:00:27.424Z</time></trkpt><trkpt lat="42.0842" lon="12.1761883"><ele>283.0</ele><time>2026-04-24T09:00:28.422Z</time></trkpt><trkpt lat="42.0842" lon="12.1763033"><ele>282.6666666666667</ele><time>2026-04-24T09:00:29.42Z</time></trkpt><trkpt lat="42.0842017" lon="12.176415"><ele>282.3333333333333</ele><time>2026-04-24T09:00:30.424Z</time></trkpt><trkpt lat="42.084205" lon="12.1765233"><ele>282.0</ele><time>2026-04-24T09:00:31.42Z</time></trkpt><trkpt lat="42.0842067" lon="12.1766317"><ele>281.8333333333333</ele><time>2026-04-24T09:00:32.421Z</time></trkpt><trkpt lat="42.0842083" lon="12.1767417"><ele>281.6666666666667</ele><time>2026-04-24T09:00:33.427Z</time></trkpt><trkpt lat="42.0842117" lon="12.1768483"><ele>281.5</ele><time>2026-04-24T09:00:34.427Z</time></trkpt><trkpt lat="42.0842133" lon="12.1769617"><ele>281.33333333333337</ele><time>2026-04-24T09:00:35.42Z</time></trkpt><trkpt lat="42.08422" lon="12.17707"><ele>281.1666666666667</ele><time>2026-04-24T09:00:36.416Z</time></trkpt><trkpt lat="42.0842267" lon="12.1771717"><ele>281.0</ele><time>2026-04-24T09:00:37.423Z</time></trkpt><trkpt lat="42.0842333" lon="12.177275"><ele>280.5</ele><time>2026-04-24T09:00:38.422Z</time></trkpt><trkpt lat="42.0842367" lon="12.17737"><ele>280.0</ele><time>2026-04-24T09:00:39.423Z</time></trkpt><trkpt lat="42.08424" lon="12.1774617"><ele>279.5</ele><time>2026-04-24T09:00:40.422Z</time></trkpt><trkpt lat="42.084245" lon="12.1775483"><ele>279.0</ele><time>2026-04-24T09:00:41.425Z</time></trkpt><trkpt lat="42.08424" lon="12.1776817"><ele>278.5</ele><time>2026-04-24T09:00:43.426Z</time></trkpt><trkpt lat="42.0842617" lon="12.177785"><ele>278.0</ele><time>2026-04-24T09:00:45.421Z</time></trkpt><trkpt lat="42.084325" lon="12.17787"><ele>278.0</ele><time>2026-04-24T09:00:47.421Z</time></trkpt><trkpt lat="42.08439" lon="12.1779567"><ele>278.0</ele><time>2026-04-24T09:00:49.425Z</time></trkpt><trkpt lat="42.0844667" lon="12.1780533"><ele>278.0</ele><time>2026-04-24T09:00:51.424Z</time></trkpt><trkpt lat="42.0845567" lon="12.17816"><ele>278.0</ele><time>2026-04-24T09:00:53.423Z</time></trkpt><trkpt lat="42.084605" lon="12.178225"><ele>278.0</ele><time>2026-04-24T09:00:54.423Z</time></trkpt><trkpt lat="42.0846533" lon="12.1782883"><ele>277.6666666666667</ele><time>2026-04-24T09:00:55.425Z</time></trkpt><trkpt lat="42.0847067" lon="12.178355"><ele>277.33333333333337</ele><time>2026-04-24T09:00:56.421Z</time></trkpt><trkpt lat="42.0847567" lon="12.17842"><ele>277.0</ele><time>2026-04-24T09:00:57.425Z</time></trkpt><trkpt lat="42.08484" lon="12.1785183"><ele>276.6666666666667</ele><time>2026-04-24T09:00:59.419Z</time></trkpt><trkpt lat="42.084895" lon="12.178585"><ele>276.3333333333333</ele><time>2026-04-24T09:01:02.424Z</time></trkpt><trkpt lat="42.0849483" lon="12.178515"><ele>276.0</ele><time>2026-04-24T09:02:07.421Z</time></trkpt><trkpt lat="42.08499" lon="12.1786383"><ele>275.0</ele><time>2026-04-24T09:02:10.424Z</time></trkpt><trkpt lat="42.08508" lon="12.1786783"><ele>274.0</ele><time>2026-04-24T09:02:12.42Z</time></trkpt><trkpt lat="42.0852033" lon="12.1787283"><ele>273.0</ele><time>2026-04-24T09:02:14.422Z</time></trkpt><trkpt lat="42.0852667" lon="12.1787683"><ele>272.0</ele><time>2026-04-24T09:02:15.421Z</time></trkpt><trkpt lat="42.0853183" lon="12.1789167"><ele>271.0</ele><time>2026-04-24T09:02:17.421Z</time></trkpt><trkpt lat="42.08531" lon="12.1790083"><ele>270.0</ele><time>2026-04-24T09:02:18.422Z</time></trkpt><trkpt lat="42.08528" lon="12.1790917"><ele>269.0</ele><time>2026-04-24T09:02:19.422Z</time></trkpt><trkpt lat="42.0852383" lon="12.17917"><ele>268.0</ele><time>2026-04-24T09:02:20.422Z</time></trkpt><trkpt lat="42.0851767" lon="12.179255"><ele>267.0</ele><time>2026-04-24T09:02:21.427Z</time></trkpt><trkpt lat="42.085115" lon="12.179355"><ele>266.0</ele><time>2026-04-24T09:02:22.419Z</time></trkpt><trkpt lat="42.0850517" lon="12.17944"><ele>265.0</ele><time>2026-04-24T09:02:23.419Z</time></trkpt><trkpt lat="42.0849833" lon="12.1795217"><ele>265.66666666666663</ele><time>2026-04-24T09:02:24.423Z</time></trkpt><trkpt lat="42.0849133" lon="12.1795917"><ele>266.3333333333333</ele><time>2026-04-24T09:02:25.422Z</time></trkpt><trkpt lat="42.0848383" lon="12.1796333"><ele>267.0</ele><time>2026-04-24T09:02:26.421Z</time></trkpt><trkpt lat="42.084765" lon="12.1796517"><ele>267.6666666666667</ele><time>2026-04-24T09:02:27.423Z</time></trkpt><trkpt lat="42.0846983" lon="12.1796583"><ele>268.33333333333337</ele><time>2026-04-24T09:02:28.422Z</time></trkpt><trkpt lat="42.084635" lon="12.179665"><ele>269.0</ele><time>2026-04-24T09:02:29.421Z</time></trkpt><trkpt lat="42.0845183" lon="12.1796783"><ele>269.0</ele><time>2026-04-24T09:02:31.421Z</time></trkpt><trkpt lat="42.0844267" lon="12.17967"><ele>269.0</ele><time>2026-04-24T09:02:33.425Z</time></trkpt></trkseg></trk></gpx>